sensor_id;sensor_type;location;lat;lon;timestamp;pressure;altitude;pressure_sealevel;temperature;humidity
75013;BME280;63567;49.956;20.130;2023-06-24T00:00:47;97138.03;;;18.80;83.08
75013;BME280;63567;49.956;20.130;2023-06-24T00:03:12;97151.00;;;18.88;83.14
75013;BME280;63567;49.956;20.130;2023-06-24T00:05:42;97141.97;;;18.77;82.84
75013;BME280;63567;49.956;20.130;2023-06-24T00:08:08;97139.44;;;18.71;82.92
75013;BME280;63567;49.956;20.130;2023-06-24T00:10:33;97149.06;;;18.83;83.13
75013;BME280;63567;49.956;20.130;2023-06-24T00:12:59;97157.28;;;18.82;83.16
75013;BME280;63567;49.956;20.130;2023-06-24T00:15:27;97147.31;;;18.77;82.92
75013;BME280;63567;49.956;20.130;2023-06-24T00:17:52;97134.59;;;18.67;83.04
75013;BME280;63567;49.956;20.130;2023-06-24T00:20:17;97143.50;;;18.73;82.15
75013;BME280;63567;49.956;20.130;2023-06-24T00:22:45;97141.88;;;18.72;82.35
75013;BME280;63567;49.956;20.130;2023-06-24T00:25:13;97144.19;;;18.68;82.10
75013;BME280;63567;49.956;20.130;2023-06-24T00:27:38;97131.91;;;18.67;82.46
75013;BME280;63567;49.956;20.130;2023-06-24T00:30:04;97151.19;;;18.58;82.11
75013;BME280;63567;49.956;20.130;2023-06-24T00:32:30;97151.91;;;18.53;82.04
75013;BME280;63567;49.956;20.130;2023-06-24T00:34:55;97148.09;;;18.49;82.29
75013;BME280;63567;49.956;20.130;2023-06-24T00:37:25;97135.22;;;18.46;82.00
75013;BME280;63567;49.956;20.130;2023-06-24T00:39:50;97137.28;;;18.56;82.21
75013;BME280;63567;49.956;20.130;2023-06-24T00:42:15;97144.47;;;18.55;81.36
75013;BME280;63567;49.956;20.130;2023-06-24T00:44:41;97133.81;;;18.55;81.32
75013;BME280;63567;49.956;20.130;2023-06-24T00:47:06;97139.38;;;18.54;81.40
75013;BME280;63567;49.956;20.130;2023-06-24T00:49:33;97144.38;;;18.50;81.85
75013;BME280;63567;49.956;20.130;2023-06-24T00:51:58;97148.09;;;18.49;81.32
75013;BME280;63567;49.956;20.130;2023-06-24T00:54:26;97142.88;;;18.54;81.61
75013;BME280;63567;49.956;20.130;2023-06-24T00:56:56;97143.31;;;18.51;81.42
75013;BME280;63567;49.956;20.130;2023-06-24T00:59:22;97149.38;;;18.46;80.88
75013;BME280;63567;49.956;20.130;2023-06-24T01:01:48;97148.31;;;18.47;81.27
75013;BME280;63567;49.956;20.130;2023-06-24T01:04:18;97150.66;;;18.44;81.11
75013;BME280;63567;49.956;20.130;2023-06-24T01:06:43;97151.47;;;18.44;81.27
75013;BME280;63567;49.956;20.130;2023-06-24T01:09:09;97157.84;;;18.43;81.40
75013;BME280;63567;49.956;20.130;2023-06-24T01:11:35;97155.66;;;18.40;81.14
75013;BME280;63567;49.956;20.130;2023-06-24T01:14:00;97161.78;;;18.41;81.18
75013;BME280;63567;49.956;20.130;2023-06-24T01:16:42;97165.28;;;18.41;81.47
75013;BME280;63567;49.956;20.130;2023-06-24T01:19:50;97154.84;;;18.40;81.04
75013;BME280;63567;49.956;20.130;2023-06-24T01:31:03;97146.16;;;18.33;81.29
75013;BME280;63567;49.956;20.130;2023-06-24T01:33:52;97154.16;;;18.33;81.40
75013;BME280;63567;49.956;20.130;2023-06-24T01:36:23;97157.50;;;18.28;81.50
75013;BME280;63567;49.956;20.130;2023-06-24T01:38:52;97161.00;;;18.29;81.17
75013;BME280;63567;49.956;20.130;2023-06-24T01:41:24;97168.44;;;18.26;81.01
75013;BME280;63567;49.956;20.130;2023-06-24T01:43:53;97164.97;;;18.26;81.12
75013;BME280;63567;49.956;20.130;2023-06-24T01:46:22;97178.97;;;18.21;81.53
75013;BME280;63567;49.956;20.130;2023-06-24T01:48:49;97181.41;;;18.23;81.61
75013;BME280;63567;49.956;20.130;2023-06-24T01:51:20;97174.25;;;18.12;81.32
75013;BME280;63567;49.956;20.130;2023-06-24T01:53:54;97177.25;;;18.15;81.17
75013;BME280;63567;49.956;20.130;2023-06-24T01:56:23;97184.56;;;18.20;81.67
75013;BME280;63567;49.956;20.130;2023-06-24T01:58:52;97190.47;;;18.22;81.37
75013;BME280;63567;49.956;20.130;2023-06-24T02:01:19;97176.09;;;18.11;81.56
75013;BME280;63567;49.956;20.130;2023-06-24T02:03:44;97182.34;;;18.17;81.24
75013;BME280;63567;49.956;20.130;2023-06-24T02:06:11;97191.19;;;18.17;81.33
75013;BME280;63567;49.956;20.130;2023-06-24T02:08:40;97177.59;;;18.07;81.28
75013;BME280;63567;49.956;20.130;2023-06-24T02:11:08;97183.25;;;18.11;81.06
75013;BME280;63567;49.956;20.130;2023-06-24T02:13:35;97182.59;;;18.03;81.08
75013;BME280;63567;49.956;20.130;2023-06-24T02:16:02;97181.41;;;17.99;81.30
75013;BME280;63567;49.956;20.130;2023-06-24T02:18:29;97178.63;;;18.06;81.40
75013;BME280;63567;49.956;20.130;2023-06-24T02:20:56;97183.97;;;18.06;81.27
75013;BME280;63567;49.956;20.130;2023-06-24T02:23:22;97176.56;;;18.08;81.42
75013;BME280;63567;49.956;20.130;2023-06-24T02:25:49;97165.09;;;17.96;81.50
75013;BME280;63567;49.956;20.130;2023-06-24T02:28:15;97174.81;;;18.02;81.37
75013;BME280;63567;49.956;20.130;2023-06-24T02:30:41;97168.91;;;17.88;81.68
75013;BME280;63567;49.956;20.130;2023-06-24T02:33:07;97162.78;;;17.88;81.77
75013;BME280;63567;49.956;20.130;2023-06-24T02:35:32;97173.44;;;17.88;81.88
75013;BME280;63567;49.956;20.130;2023-06-24T02:37:58;97180.72;;;17.92;81.90
75013;BME280;63567;49.956;20.130;2023-06-24T02:40:23;97183.19;;;17.94;81.71
75013;BME280;63567;49.956;20.130;2023-06-24T02:42:49;97180.63;;;17.87;81.89
75013;BME280;63567;49.956;20.130;2023-06-24T02:45:15;97188.03;;;17.97;81.66
75013;BME280;63567;49.956;20.130;2023-06-24T02:47:43;97179.09;;;17.91;81.85
75013;BME280;63567;49.956;20.130;2023-06-24T02:50:10;97181.53;;;17.93;82.03
75013;BME280;63567;49.956;20.130;2023-06-24T02:52:36;97182.47;;;17.86;82.19
75013;BME280;63567;49.956;20.130;2023-06-24T02:55:02;97174.94;;;17.83;82.37
75013;BME280;63567;49.956;20.130;2023-06-24T02:57:28;97183.97;;;17.82;82.50
75013;BME280;63567;49.956;20.130;2023-06-24T02:59:54;97182.78;;;17.78;82.76
75013;BME280;63567;49.956;20.130;2023-06-24T03:02:20;97166.81;;;17.78;82.31
75013;BME280;63567;49.956;20.130;2023-06-24T03:04:47;97163.66;;;17.81;81.95
75013;BME280;63567;49.956;20.130;2023-06-24T03:07:13;97169.47;;;17.78;82.51
75013;BME280;63567;49.956;20.130;2023-06-24T03:09:40;97175.59;;;17.79;82.58
75013;BME280;63567;49.956;20.130;2023-06-24T03:12:05;97174.53;;;17.80;82.53
75013;BME280;63567;49.956;20.130;2023-06-24T03:14:31;97185.59;;;17.83;82.76
75013;BME280;63567;49.956;20.130;2023-06-24T03:16:56;97184.97;;;17.81;82.29
75013;BME280;63567;49.956;20.130;2023-06-24T03:19:22;97183.28;;;17.87;82.62
75013;BME280;63567;49.956;20.130;2023-06-24T03:21:47;97177.97;;;17.87;82.16
75013;BME280;63567;49.956;20.130;2023-06-24T03:24:12;97191.88;;;17.89;82.20
75013;BME280;63567;49.956;20.130;2023-06-24T03:26:39;97180.72;;;17.92;82.42
75013;BME280;63567;49.956;20.130;2023-06-24T03:29:07;97184.78;;;17.95;82.02
75013;BME280;63567;49.956;20.130;2023-06-24T03:31:33;97189.09;;;17.96;81.68
75013;BME280;63567;49.956;20.130;2023-06-24T03:33:58;97178.44;;;17.96;82.38
75013;BME280;63567;49.956;20.130;2023-06-24T03:36:24;97184.78;;;17.95;82.42
75013;BME280;63567;49.956;20.130;2023-06-24T03:38:49;97186.28;;;17.91;82.60
75013;BME280;63567;49.956;20.130;2023-06-24T03:41:14;97188.16;;;17.90;82.33
75013;BME280;63567;49.956;20.130;2023-06-24T03:43:40;97190.59;;;17.92;82.65
75013;BME280;63567;49.956;20.130;2023-06-24T03:46:07;97179.78;;;17.86;82.42
75013;BME280;63567;49.956;20.130;2023-06-24T03:48:32;97193.00;;;17.93;82.77
75013;BME280;63567;49.956;20.130;2023-06-24T03:50:57;97185.94;;;17.99;82.56
75013;BME280;63567;49.956;20.130;2023-06-24T03:53:22;97190.69;;;17.97;82.52
75013;BME280;63567;49.956;20.130;2023-06-24T03:55:48;97186.66;;;17.94;83.29
75013;BME280;63567;49.956;20.130;2023-06-24T03:58:13;97191.88;;;17.89;83.65
75013;BME280;63567;49.956;20.130;2023-06-24T04:00:39;97190.47;;;17.98;83.50
75013;BME280;63567;49.956;20.130;2023-06-24T04:03:06;97189.09;;;17.96;83.59
75013;BME280;63567;49.956;20.130;2023-06-24T04:05:33;97192.78;;;17.95;83.28
75013;BME280;63567;49.956;20.130;2023-06-24T04:07:58;97190.47;;;17.98;83.67
75013;BME280;63567;49.956;20.130;2023-06-24T04:10:23;97198.13;;;17.95;83.63
75013;BME280;63567;49.956;20.130;2023-06-24T04:12:49;97183.63;;;17.91;83.34
75013;BME280;63567;49.956;20.130;2023-06-24T04:15:14;97200.78;;;17.95;83.72
75013;BME280;63567;49.956;20.130;2023-06-24T04:17:40;97202.53;;;17.89;83.68
75013;BME280;63567;49.956;20.130;2023-06-24T04:20:05;97194.75;;;17.88;84.00
75013;BME280;63567;49.956;20.130;2023-06-24T04:22:34;97200.19;;;17.93;83.91
75013;BME280;63567;49.956;20.130;2023-06-24T04:24:59;97204.03;;;17.97;83.42
75013;BME280;63567;49.956;20.130;2023-06-24T04:27:25;97212.13;;;18.02;83.05
75013;BME280;63567;49.956;20.130;2023-06-24T04:29:50;97211.56;;;18.00;83.39
75013;BME280;63567;49.956;20.130;2023-06-24T04:32:15;97217.59;;;18.07;83.29
75013;BME280;63567;49.956;20.130;2023-06-24T04:34:40;97219.91;;;18.03;83.43
75013;BME280;63567;49.956;20.130;2023-06-24T04:37:06;97209.84;;;17.94;84.09
75013;BME280;63567;49.956;20.130;2023-06-24T04:39:31;97224.44;;;18.03;83.21
75013;BME280;63567;49.956;20.130;2023-06-24T04:41:56;97228.50;;;18.05;83.59
75013;BME280;63567;49.956;20.130;2023-06-24T04:44:22;97235.00;;;17.98;83.55
75013;BME280;63567;49.956;20.130;2023-06-24T04:46:47;97240.22;;;18.04;83.31
75013;BME280;63567;49.956;20.130;2023-06-24T04:49:12;97239.16;;;18.05;83.18
75013;BME280;63567;49.956;20.130;2023-06-24T04:51:38;97245.75;;;18.03;83.60
75013;BME280;63567;49.956;20.130;2023-06-24T04:54:03;97240.53;;;17.96;83.77
75013;BME280;63567;49.956;20.130;2023-06-24T04:56:29;97245.88;;;17.96;83.66
75013;BME280;63567;49.956;20.130;2023-06-24T04:58:54;97242.41;;;17.96;83.26
75013;BME280;63567;49.956;20.130;2023-06-24T05:01:20;97249.44;;;18.02;83.43
75013;BME280;63567;49.956;20.130;2023-06-24T05:03:45;97234.41;;;17.96;84.02
75013;BME280;63567;49.956;20.130;2023-06-24T05:06:10;97248.66;;;18.01;83.96
75013;BME280;63567;49.956;20.130;2023-06-24T05:08:35;97243.53;;;18.00;83.74
75013;BME280;63567;49.956;20.130;2023-06-24T05:11:01;97246.56;;;17.92;84.00
75013;BME280;63567;49.956;20.130;2023-06-24T05:13:27;97256.66;;;17.90;84.26
75013;BME280;63567;49.956;20.130;2023-06-24T05:15:53;97254.56;;;17.92;84.37
75013;BME280;63567;49.956;20.130;2023-06-24T05:18:18;97249.44;;;17.90;84.28
75013;BME280;63567;49.956;20.130;2023-06-24T05:20:43;97253.97;;;17.90;83.90
75013;BME280;63567;49.956;20.130;2023-06-24T05:23:08;97255.00;;;17.89;84.31
75013;BME280;63567;49.956;20.130;2023-06-24T05:25:34;97248.69;;;17.71;85.50
75013;BME280;63567;49.956;20.130;2023-06-24T05:28:00;97257.47;;;17.60;86.15
75013;BME280;63567;49.956;20.130;2023-06-24T05:30:25;97255.94;;;17.52;86.95
75013;BME280;63567;49.956;20.130;2023-06-24T05:32:50;97253.03;;;17.54;86.81
75013;BME280;63567;49.956;20.130;2023-06-24T05:35:16;97247.72;;;17.54;87.22
75013;BME280;63567;49.956;20.130;2023-06-24T05:37:41;97259.28;;;17.48;88.09
75013;BME280;63567;49.956;20.130;2023-06-24T05:40:07;97262.09;;;17.53;87.76
75013;BME280;63567;49.956;20.130;2023-06-24T05:42:33;97257.09;;;17.56;87.43
75013;BME280;63567;49.956;20.130;2023-06-24T05:44:59;97258.97;;;17.56;87.72
75013;BME280;63567;49.956;20.130;2023-06-24T05:47:24;97257.09;;;17.56;87.65
75013;BME280;63567;49.956;20.130;2023-06-24T05:49:49;97255.91;;;17.40;89.63
75013;BME280;63567;49.956;20.130;2023-06-24T05:52:14;97268.19;;;17.41;89.42
75013;BME280;63567;49.956;20.130;2023-06-24T05:54:39;97253.41;;;17.27;90.20
75013;BME280;63567;49.956;20.130;2023-06-24T05:57:05;97264.78;;;17.34;89.85
75013;BME280;63567;49.956;20.130;2023-06-24T05:59:32;97264.94;;;17.39;89.56
75013;BME280;63567;49.956;20.130;2023-06-24T06:01:57;97261.81;;;17.42;89.71
75013;BME280;63567;49.956;20.130;2023-06-24T06:04:22;97262.63;;;17.43;89.90
75013;BME280;63567;49.956;20.130;2023-06-24T06:06:47;97264.47;;;17.42;89.57
75013;BME280;63567;49.956;20.130;2023-06-24T06:09:13;97265.28;;;17.43;90.06
75013;BME280;63567;49.956;20.130;2023-06-24T06:11:38;97270.84;;;17.41;89.96
75013;BME280;63567;49.956;20.130;2023-06-24T06:14:03;97269.22;;;17.40;90.63
75013;BME280;63567;49.956;20.130;2023-06-24T06:16:28;97279.50;;;17.37;90.82
75013;BME280;63567;49.956;20.130;2023-06-24T06:18:54;97280.75;;;17.34;90.40
75013;BME280;63567;49.956;20.130;2023-06-24T06:21:19;97275.22;;;17.36;90.74
75013;BME280;63567;49.956;20.130;2023-06-24T06:23:44;97271.00;;;17.28;90.32
75013;BME280;63567;49.956;20.130;2023-06-24T06:26:10;97286.09;;;17.34;90.78
75013;BME280;63567;49.956;20.130;2023-06-24T06:28:35;97280.75;;;17.34;90.96
75013;BME280;63567;49.956;20.130;2023-06-24T06:31:00;97277.84;;;17.24;90.97
75013;BME280;63567;49.956;20.130;2023-06-24T06:33:25;97290.81;;;17.32;91.12
75013;BME280;63567;49.956;20.130;2023-06-24T06:35:51;97292.91;;;17.30;90.51
75013;BME280;63567;49.956;20.130;2023-06-24T06:38:16;97291.50;;;17.28;91.08
75013;BME280;63567;49.956;20.130;2023-06-24T06:40:41;97275.81;;;17.19;91.26
75013;BME280;63567;49.956;20.130;2023-06-24T06:43:06;97286.19;;;17.28;91.82
75013;BME280;63567;49.956;20.130;2023-06-24T06:45:32;97291.28;;;17.29;91.63
75013;BME280;63567;49.956;20.130;2023-06-24T06:47:57;97288.25;;;17.25;92.15
75013;BME280;63567;49.956;20.130;2023-06-24T06:50:22;97295.81;;;17.29;91.96
75013;BME280;63567;49.956;20.130;2023-06-24T06:52:48;97290.31;;;17.23;92.36
75013;BME280;63567;49.956;20.130;2023-06-24T06:55:13;97290.31;;;17.23;92.07
75013;BME280;63567;49.956;20.130;2023-06-24T06:57:38;97307.06;;;17.31;92.18
75013;BME280;63567;49.956;20.130;2023-06-24T07:00:04;97317.69;;;17.31;91.94
75013;BME280;63567;49.956;20.130;2023-06-24T07:02:29;97317.69;;;17.31;91.94
75013;BME280;63567;49.956;20.130;2023-06-24T07:04:55;97314.44;;;17.29;91.94
75013;BME280;63567;49.956;20.130;2023-06-24T07:07:20;97309.56;;;17.25;91.96
75013;BME280;63567;49.956;20.130;2023-06-24T07:09:45;97329.16;;;17.31;92.06
75013;BME280;63567;49.956;20.130;2023-06-24T07:12:11;97320.13;;;17.32;92.25
75013;BME280;63567;49.956;20.130;2023-06-24T07:14:38;97320.72;;;17.34;92.35
75013;BME280;63567;49.956;20.130;2023-06-24T07:17:03;97323.38;;;17.34;93.46
75013;BME280;63567;49.956;20.130;2023-06-24T07:19:29;97323.53;;;17.39;93.10
75013;BME280;63567;49.956;20.130;2023-06-24T07:21:54;97335.81;;;17.40;93.72
75013;BME280;63567;49.956;20.130;2023-06-24T07:24:19;97334.53;;;17.43;93.73
75013;BME280;63567;49.956;20.130;2023-06-24T07:26:44;97332.25;;;17.47;92.75
75013;BME280;63567;49.956;20.130;2023-06-24T07:29:10;97326.91;;;17.47;93.83
75013;BME280;63567;49.956;20.130;2023-06-24T07:31:36;97330.53;;;17.52;93.78
75013;BME280;63567;49.956;20.130;2023-06-24T07:34:02;97328.81;;;17.58;94.34
75013;BME280;63567;49.956;20.130;2023-06-24T07:36:27;97333.72;;;17.61;95.14
75013;BME280;63567;49.956;20.130;2023-06-24T07:38:52;97330.38;;;17.65;96.22
75013;BME280;63567;49.956;20.130;2023-06-24T07:41:17;97321.53;;;17.65;96.38
75013;BME280;63567;49.956;20.130;2023-06-24T07:43:43;97328.88;;;17.70;96.59
75013;BME280;63567;49.956;20.130;2023-06-24T07:46:08;97341.84;;;17.78;97.62
75013;BME280;63567;49.956;20.130;2023-06-24T07:48:33;97337.94;;;17.80;95.74
75013;BME280;63567;49.956;20.130;2023-06-24T07:50:59;97343.22;;;17.87;96.30
75013;BME280;63567;49.956;20.130;2023-06-24T07:53:24;97350.28;;;17.93;96.34
75013;BME280;63567;49.956;20.130;2023-06-24T07:55:49;97346.22;;;17.91;96.25
75013;BME280;63567;49.956;20.130;2023-06-24T07:58:14;97350.44;;;17.98;95.92
75013;BME280;63567;49.956;20.130;2023-06-24T08:00:40;97369.44;;;18.02;95.76
75013;BME280;63567;49.956;20.130;2023-06-24T08:03:05;97365.03;;;17.96;95.60
75013;BME280;63567;49.956;20.130;2023-06-24T08:05:30;97360.72;;;17.95;95.61
75013;BME280;63567;49.956;20.130;2023-06-24T08:07:55;97366.06;;;17.95;94.60
75013;BME280;63567;49.956;20.130;2023-06-24T08:10:21;97369.69;;;18.00;94.96
75013;BME280;63567;49.956;20.130;2023-06-24T08:12:46;97378.25;;;18.02;94.35
75013;BME280;63567;49.956;20.130;2023-06-24T08:15:12;97371.38;;;17.95;94.03
75013;BME280;63567;49.956;20.130;2023-06-24T08:17:37;97379.59;;;17.93;94.12
75013;BME280;63567;49.956;20.130;2023-06-24T08:20:03;97388.56;;;17.99;93.72
75013;BME280;63567;49.956;20.130;2023-06-24T08:22:29;97377.88;;;17.87;93.83
75013;BME280;63567;49.956;20.130;2023-06-24T08:24:54;97391.78;;;17.89;93.51
75013;BME280;63567;49.956;20.130;2023-06-24T08:27:20;97395.38;;;17.95;94.05
75013;BME280;63567;49.956;20.130;2023-06-24T08:29:45;97395.59;;;17.93;93.67
75013;BME280;63567;49.956;20.130;2023-06-24T08:32:10;97401.75;;;17.94;93.41
75013;BME280;63567;49.956;20.130;2023-06-24T08:34:35;97392.22;;;17.86;93.77
75013;BME280;63567;49.956;20.130;2023-06-24T08:37:01;97408.78;;;17.88;94.42
75013;BME280;63567;49.956;20.130;2023-06-24T08:39:26;97414.19;;;17.81;94.49
75013;BME280;63567;49.956;20.130;2023-06-24T08:41:51;97416.00;;;17.88;94.18
75013;BME280;63567;49.956;20.130;2023-06-24T08:44:17;97410.50;;;17.82;94.25
75013;BME280;63567;49.956;20.130;2023-06-24T08:46:43;97425.59;;;17.89;94.27
75013;BME280;63567;49.956;20.130;2023-06-24T08:49:29;97413.44;;;17.93;94.31
75013;BME280;63567;49.956;20.130;2023-06-24T08:52:08;97417.28;;;17.97;94.00
75013;BME280;63567;49.956;20.130;2023-06-24T08:54:35;97422.25;;;17.93;94.24
75013;BME280;63567;49.956;20.130;2023-06-24T08:57:02;97433.16;;;17.92;94.27
75013;BME280;63567;49.956;20.130;2023-06-24T08:59:30;97412.16;;;17.83;94.10
75013;BME280;63567;49.956;20.130;2023-06-24T09:01:55;97424.09;;;17.93;94.43
75013;BME280;63567;49.956;20.130;2023-06-24T09:04:21;97432.91;;;17.93;94.66
75013;BME280;63567;49.956;20.130;2023-06-24T09:06:46;97431.09;;;17.94;94.55
75013;BME280;63567;49.956;20.130;2023-06-24T09:09:18;97433.28;;;17.97;93.87
75013;BME280;63567;49.956;20.130;2023-06-24T09:11:54;97433.28;;;17.97;93.77
75013;BME280;63567;49.956;20.130;2023-06-24T09:14:20;97439.44;;;17.97;94.45
75013;BME280;63567;49.956;20.130;2023-06-24T09:16:57;97447.44;;;17.97;94.14
75013;BME280;63567;49.956;20.130;2023-06-24T09:19:24;97444.53;;;17.99;94.43
75013;BME280;63567;49.956;20.130;2023-06-24T09:21:50;97433.97;;;17.92;94.12
75013;BME280;63567;49.956;20.130;2023-06-24T09:24:17;97453.00;;;17.96;93.83
75013;BME280;63567;49.956;20.130;2023-06-24T09:26:43;97458.69;;;17.99;93.99
75013;BME280;63567;49.956;20.130;2023-06-24T09:29:13;97449.28;;;17.97;94.05
75013;BME280;63567;49.956;20.130;2023-06-24T09:31:49;97445.66;;;17.91;94.20
75013;BME280;63567;49.956;20.130;2023-06-24T09:34:15;97442.94;;;17.98;94.40
75013;BME280;63567;49.956;20.130;2023-06-24T09:36:45;97459.28;;;18.01;94.40
75013;BME280;63567;49.956;20.130;2023-06-24T09:39:11;97452.91;;;18.02;93.50
75013;BME280;63567;49.956;20.130;2023-06-24T09:41:40;97460.66;;;18.04;93.17
75013;BME280;63567;49.956;20.130;2023-06-24T09:44:10;97454.91;;;18.07;92.98
75013;BME280;63567;49.956;20.130;2023-06-24T09:46:36;97459.78;;;18.10;92.81
75013;BME280;63567;49.956;20.130;2023-06-24T09:49:03;97459.34;;;18.13;93.10
75013;BME280;63567;49.956;20.130;2023-06-24T09:51:28;97473.84;;;18.17;93.25
75013;BME280;63567;49.956;20.130;2023-06-24T09:53:54;97469.53;;;18.16;93.03
75013;BME280;63567;49.956;20.130;2023-06-24T09:56:22;97471.19;;;18.17;93.15
75013;BME280;63567;49.956;20.130;2023-06-24T09:58:48;97472.78;;;18.18;91.78
75013;BME280;63567;49.956;20.130;2023-06-24T10:01:14;97483.84;;;18.22;92.98
75013;BME280;63567;49.956;20.130;2023-06-24T10:03:41;97480.34;;;18.21;93.56
75013;BME280;63567;49.956;20.130;2023-06-24T10:06:08;97477.44;;;18.23;92.18
75013;BME280;63567;49.956;20.130;2023-06-24T10:08:33;97485.22;;;18.24;91.68
75013;BME280;63567;49.956;20.130;2023-06-24T10:10:59;97488.47;;;18.26;91.12
75013;BME280;63567;49.956;20.130;2023-06-24T10:13:25;97498.47;;;18.31;92.01
75013;BME280;63567;49.956;20.130;2023-06-24T10:15:51;97494.75;;;18.32;91.61
75013;BME280;63567;49.956;20.130;2023-06-24T10:18:36;97489.19;;;18.34;91.55
75013;BME280;63567;49.956;20.130;2023-06-24T10:21:03;97491.06;;;18.33;92.35
75013;BME280;63567;49.956;20.130;2023-06-24T10:26:28;97503.94;;;18.36;91.14
75013;BME280;63567;49.956;20.130;2023-06-24T10:36:53;97502.00;;;18.43;90.73
75013;BME280;63567;49.956;20.130;2023-06-24T10:39:38;97486.91;;;18.37;91.12
75013;BME280;63567;49.956;20.130;2023-06-24T10:44:48;97508.28;;;18.49;90.84
75013;BME280;63567;49.956;20.130;2023-06-24T10:47:14;97508.88;;;18.51;91.16
75013;BME280;63567;49.956;20.130;2023-06-24T10:49:39;97509.31;;;18.48;91.64
75013;BME280;63567;49.956;20.130;2023-06-24T10:52:07;97509.66;;;18.52;91.20
75013;BME280;63567;49.956;20.130;2023-06-24T10:54:33;97503.16;;;18.47;90.66
75013;BME280;63567;49.956;20.130;2023-06-24T10:56:58;97508.97;;;18.56;91.13
75013;BME280;63567;49.956;20.130;2023-06-24T10:59:23;97504.69;;;18.55;89.85
75013;BME280;63567;49.956;20.130;2023-06-24T11:01:55;97495.88;;;18.55;90.72
75013;BME280;63567;49.956;20.130;2023-06-24T11:04:20;97506.69;;;18.60;89.66
75013;BME280;63567;49.956;20.130;2023-06-24T11:07:02;97509.47;;;18.65;90.17
75013;BME280;63567;49.956;20.130;2023-06-24T11:09:27;97512.72;;;18.67;89.73
75013;BME280;63567;49.956;20.130;2023-06-24T11:11:53;97516.22;;;18.67;90.17
75013;BME280;63567;49.956;20.130;2023-06-24T11:14:21;97505.56;;;18.67;90.42
75013;BME280;63567;49.956;20.130;2023-06-24T11:16:46;97516.34;;;18.73;90.61
75013;BME280;63567;49.956;20.130;2023-06-24T11:19:12;97506.94;;;18.70;89.63
75013;BME280;63567;49.956;20.130;2023-06-24T11:21:38;97518.94;;;18.79;89.28
75013;BME280;63567;49.956;20.130;2023-06-24T11:24:03;97512.00;;;18.78;89.22
75013;BME280;63567;49.956;20.130;2023-06-24T11:26:29;97518.84;;;18.86;90.75
75013;BME280;63567;49.956;20.130;2023-06-24T11:28:55;97524.88;;;18.93;89.97
75013;BME280;63567;49.956;20.130;2023-06-24T11:31:27;97516.44;;;18.96;89.86
75013;BME280;63567;49.956;20.130;2023-06-24T11:33:52;97514.34;;;18.98;89.97
75013;BME280;63567;49.956;20.130;2023-06-24T11:36:18;97520.50;;;18.99;89.82
75013;BME280;63567;49.956;20.130;2023-06-24T11:38:46;97520.50;;;18.99;89.15
75013;BME280;63567;49.956;20.130;2023-06-24T11:41:11;97526.63;;;18.99;88.68
75013;BME280;63567;49.956;20.130;2023-06-24T11:43:36;97522.81;;;18.95;88.20
75013;BME280;63567;49.956;20.130;2023-06-24T11:46:01;97524.44;;;18.96;88.15
75013;BME280;63567;49.956;20.130;2023-06-24T11:48:28;97514.00;;;18.95;88.14
75013;BME280;63567;49.956;20.130;2023-06-24T11:50:54;97520.59;;;18.92;86.96
75013;BME280;63567;49.956;20.130;2023-06-24T11:53:42;97518.53;;;18.94;87.24
75013;BME280;63567;49.956;20.130;2023-06-24T11:56:11;97517.34;;;18.90;87.24
75013;BME280;63567;49.956;20.130;2023-06-24T11:58:38;97515.47;;;18.91;87.18
75013;BME280;63567;49.956;20.130;2023-06-24T12:01:03;97512.47;;;18.87;86.82
75013;BME280;63567;49.956;20.130;2023-06-24T12:03:32;97505.63;;;18.91;86.72
75013;BME280;63567;49.956;20.130;2023-06-24T12:05:58;97510.41;;;18.89;87.45
75013;BME280;63567;49.956;20.130;2023-06-24T12:08:23;97516.31;;;18.91;86.47
75013;BME280;63567;49.956;20.130;2023-06-24T12:10:49;97503.03;;;18.84;86.37
75013;BME280;63567;49.956;20.130;2023-06-24T12:13:14;97519.66;;;18.86;85.75
75013;BME280;63567;49.956;20.130;2023-06-24T12:15:40;97516.66;;;18.83;86.55
75013;BME280;63567;49.956;20.130;2023-06-24T12:18:06;97506.25;;;18.75;85.64
75013;BME280;63567;49.956;20.130;2023-06-24T12:20:31;97511.59;;;18.75;86.54
75013;BME280;63567;49.956;20.130;2023-06-24T12:22:57;97506.94;;;18.70;86.46
75013;BME280;63567;49.956;20.130;2023-06-24T12:25:23;97518.06;;;18.67;86.31
75013;BME280;63567;49.956;20.130;2023-06-24T12:27:49;97514.00;;;18.64;86.50
75013;BME280;63567;49.956;20.130;2023-06-24T12:30:14;97508.44;;;18.54;86.32
75013;BME280;63567;49.956;20.130;2023-06-24T12:32:41;97517.22;;;18.55;86.49
75013;BME280;63567;49.956;20.130;2023-06-24T12:35:07;97512.44;;;18.45;86.00
75013;BME280;63567;49.956;20.130;2023-06-24T12:37:34;97518.13;;;18.48;86.57
75013;BME280;63567;49.956;20.130;2023-06-24T12:40:00;97523.09;;;18.45;86.87
75013;BME280;63567;49.956;20.130;2023-06-24T12:42:26;97531.56;;;18.42;86.84
75013;BME280;63567;49.956;20.130;2023-06-24T12:44:52;97526.31;;;18.35;86.88
75013;BME280;63567;49.956;20.130;2023-06-24T12:47:18;97526.34;;;18.17;85.73
75013;BME280;63567;49.956;20.130;2023-06-24T12:49:43;97534.94;;;18.19;85.79
75013;BME280;63567;49.956;20.130;2023-06-24T12:52:09;97538.41;;;18.19;86.12
75013;BME280;63567;49.956;20.130;2023-06-24T12:54:34;97539.94;;;18.15;86.87
75013;BME280;63567;49.956;20.130;2023-06-24T12:57:01;97538.38;;;18.08;86.41
75013;BME280;63567;49.956;20.130;2023-06-24T12:59:26;97538.97;;;18.10;87.13
75013;BME280;63567;49.956;20.130;2023-06-24T13:01:52;97547.16;;;18.08;86.99
75013;BME280;63567;49.956;20.130;2023-06-24T13:04:17;97546.56;;;18.06;87.05
75013;BME280;63567;49.956;20.130;2023-06-24T13:06:45;97540.66;;;18.04;87.62
75013;BME280;63567;49.956;20.130;2023-06-24T13:09:11;97535.78;;;18.01;87.30